createdAt,value
2023-03-18T00:01:07.717Z,7.60
2023-03-18T00:03:37.828Z,8.37
2023-03-18T00:06:12.248Z,12.93
2023-03-18T00:08:41.277Z,7.63
2023-03-18T00:11:11.295Z,8.90
2023-03-18T00:13:38.366Z,9.03
2023-03-18T00:16:07.228Z,11.57
2023-03-18T00:18:35.214Z,10.00
2023-03-18T00:21:04.042Z,7.20
2023-03-18T00:23:33.178Z,7.20
2023-03-18T00:26:02.217Z,8.20
2023-03-18T00:28:31.869Z,10.03
2023-03-18T00:31:08.928Z,6.20
2023-03-18T00:33:38.725Z,8.90
2023-03-18T00:36:14.047Z,6.87
2023-03-18T00:38:51.224Z,6.27
2023-03-18T00:41:18.302Z,6.40
2023-03-18T00:43:57.205Z,7.40
2023-03-18T00:46:32.406Z,6.93
2023-03-18T00:49:05.429Z,7.30
2023-03-18T00:51:35.450Z,9.83
2023-03-18T00:54:07.676Z,8.80
2023-03-18T00:56:37.933Z,9.17
2023-03-18T00:59:06.999Z,7.40
2023-03-18T01:01:34.964Z,8.27
2023-03-18T01:04:02.791Z,11.13
2023-03-18T01:06:37.683Z,8.23
2023-03-18T01:09:09.096Z,9.57
2023-03-18T01:11:36.710Z,14.30
2023-03-18T01:14:03.875Z,8.43
2023-03-18T01:16:30.990Z,11.70
2023-03-18T01:18:58.567Z,9.50
2023-03-18T01:21:26.239Z,9.53
2023-03-18T01:23:53.758Z,8.67
2023-03-18T01:26:20.935Z,8.83
2023-03-18T01:28:48.533Z,9.23
2023-03-18T01:31:15.757Z,9.20
2023-03-18T01:33:42.725Z,9.90
2023-03-18T01:36:10.921Z,11.57
2023-03-18T01:38:39.022Z,9.43
2023-03-18T01:41:05.990Z,9.60
2023-03-18T01:43:39.181Z,12.20
2023-03-18T01:46:32.116Z,10.00
2023-03-18T01:49:02.593Z,9.27
2023-03-18T01:51:30.287Z,10.47
2023-03-18T01:54:02.423Z,8.70
2023-03-18T01:56:29.789Z,13.17
2023-03-18T01:59:00.628Z,10.47
2023-03-18T02:02:11.637Z,12.90
2023-03-18T02:04:49.428Z,13.20
2023-03-18T02:07:24.575Z,13.77
2023-03-18T02:09:54.395Z,9.20
2023-03-18T02:12:40.348Z,14.23
2023-03-18T02:15:13.461Z,13.70
2023-03-18T02:17:50.076Z,12.07
2023-03-18T02:20:39.115Z,9.97
2023-03-18T02:23:37.258Z,8.63
2023-03-18T02:26:04.216Z,10.80
2023-03-18T02:28:34.646Z,10.97
2023-03-18T02:31:09.780Z,13.00
2023-03-18T02:33:39.446Z,11.40
2023-03-18T02:36:12.952Z,11.77
2023-03-18T02:38:44.531Z,10.93
2023-03-18T02:41:20.326Z,10.87
2023-03-18T02:43:48.486Z,16.73
2023-03-18T02:46:21.003Z,9.13
2023-03-18T02:48:49.903Z,15.93
2023-03-18T02:51:19.118Z,8.67
2023-03-18T02:53:46.382Z,8.93
2023-03-18T02:56:14.706Z,9.03
2023-03-18T02:58:42.330Z,9.83
2023-03-18T03:01:10.685Z,10.37
2023-03-18T03:03:39.158Z,9.47
2023-03-18T03:06:07.594Z,8.07
2023-03-18T03:08:35.394Z,9.73
2023-03-18T03:11:02.652Z,12.60
2023-03-18T03:13:29.855Z,11.00
2023-03-18T03:15:57.679Z,10.73
2023-03-18T03:18:24.815Z,11.83
2023-03-18T03:20:52.341Z,11.67
2023-03-18T03:23:19.821Z,9.70
2023-03-18T03:25:46.846Z,10.30
2023-03-18T03:28:16.831Z,10.20
2023-03-18T03:30:45.659Z,10.70
2023-03-18T03:33:13.408Z,12.67
2023-03-18T03:35:41.890Z,10.00
2023-03-18T03:38:10.852Z,9.80
2023-03-18T03:40:39.142Z,11.60
2023-03-18T03:43:07.185Z,10.37
2023-03-18T03:45:34.919Z,11.33
2023-03-18T03:48:02.436Z,13.60
2023-03-18T03:50:29.609Z,10.30
2023-03-18T03:52:57.412Z,9.87
2023-03-18T03:55:25.861Z,12.27
2023-03-18T03:57:52.879Z,10.07
2023-03-18T04:00:22.823Z,12.13
2023-03-18T04:02:52.274Z,12.40
2023-03-18T04:05:23.698Z,14.57
2023-03-18T04:07:52.631Z,11.03
2023-03-18T04:10:22.925Z,11.77
2023-03-18T04:12:51.031Z,10.17
2023-03-18T04:15:21.466Z,10.47
2023-03-18T04:17:50.798Z,10.03
2023-03-18T04:20:18.450Z,13.27
2023-03-18T04:22:46.140Z,10.83
2023-03-18T04:25:15.132Z,11.27
2023-03-18T04:27:43.587Z,12.27
2023-03-18T04:30:12.008Z,14.30
2023-03-18T04:32:39.114Z,12.10
2023-03-18T04:35:07.038Z,12.67
2023-03-18T04:37:37.340Z,12.40
2023-03-18T04:40:06.736Z,14.67
2023-03-18T04:42:34.093Z,12.40
2023-03-18T04:45:02.005Z,16.97
2023-03-18T04:47:29.048Z,15.57
2023-03-18T04:49:56.129Z,13.57
2023-03-18T04:52:24.699Z,12.80
2023-03-18T04:54:51.759Z,14.30
2023-03-18T04:57:19.803Z,12.53
2023-03-18T04:59:46.876Z,13.10
2023-03-18T05:02:13.934Z,16.80
2023-03-18T05:04:40.915Z,14.30
2023-03-18T05:07:09.033Z,14.33
2023-03-18T05:09:36.341Z,15.17
2023-03-18T05:12:03.360Z,12.60
2023-03-18T05:14:30.459Z,11.20
2023-03-18T05:16:58.058Z,12.70
2023-03-18T05:19:25.557Z,12.60
2023-03-18T05:21:52.784Z,10.83
2023-03-18T05:24:19.867Z,12.17
2023-03-18T05:26:48.052Z,39.97
2023-03-18T05:29:16.692Z,18.40
2023-03-18T05:31:43.908Z,14.67
2023-03-18T05:34:12.350Z,13.80
2023-03-18T05:36:39.475Z,19.60
2023-03-18T05:39:06.548Z,18.03
2023-03-18T05:41:33.606Z,21.40
2023-03-18T05:44:00.605Z,13.80
2023-03-18T05:46:27.951Z,19.07
2023-03-18T05:48:55.445Z,17.13
2023-03-18T05:51:22.513Z,17.93
2023-03-18T05:53:49.575Z,18.10
2023-03-18T05:56:16.766Z,13.57
2023-03-18T05:58:44.080Z,14.20
2023-03-18T06:01:11.588Z,13.87
2023-03-18T06:03:38.637Z,13.23
2023-03-18T06:06:06.569Z,15.67
2023-03-18T06:08:33.618Z,15.87
2023-03-18T06:11:01.431Z,12.80
2023-03-18T06:13:28.460Z,14.03
2023-03-18T06:16:00.528Z,13.30
2023-03-18T06:18:28.232Z,14.10
2023-03-18T06:20:56.167Z,14.67
2023-03-18T06:23:23.799Z,14.80
2023-03-18T06:25:51.302Z,13.50
2023-03-18T06:28:18.847Z,13.30
2023-03-18T06:30:45.955Z,15.07
2023-03-18T06:33:14.455Z,14.50
2023-03-18T06:35:41.596Z,14.97
2023-03-18T06:38:10.890Z,14.57
2023-03-18T06:40:37.881Z,13.40
2023-03-18T06:43:04.999Z,13.10
2023-03-18T06:45:33.161Z,19.53
2023-03-18T06:48:01.145Z,15.80
2023-03-18T06:50:28.266Z,13.67
2023-03-18T06:52:55.272Z,15.00
2023-03-18T06:55:22.321Z,14.33
2023-03-18T06:57:49.351Z,15.53
2023-03-18T07:00:18.268Z,14.77
2023-03-18T07:02:46.117Z,13.67
2023-03-18T07:05:13.225Z,13.73
2023-03-18T07:07:40.460Z,15.03
2023-03-18T07:10:10.879Z,14.10
2023-03-18T07:12:37.822Z,15.67
2023-03-18T07:15:05.453Z,16.47
2023-03-18T07:17:32.448Z,12.93
2023-03-18T07:19:59.498Z,13.87
2023-03-18T07:22:26.576Z,14.33
2023-03-18T07:24:53.866Z,15.40
2023-03-18T07:27:21.062Z,15.30
2023-03-18T07:29:48.188Z,14.70
2023-03-18T07:32:15.328Z,13.00
2023-03-18T07:34:42.713Z,13.30
2023-03-18T07:37:10.477Z,15.60
2023-03-18T07:39:37.689Z,11.63
2023-03-18T07:42:04.739Z,13.10
2023-03-18T07:44:31.899Z,14.87
2023-03-18T07:46:58.962Z,10.77
2023-03-18T07:49:26.192Z,12.70
2023-03-18T07:51:53.265Z,11.17
2023-03-18T07:54:20.367Z,14.60
2023-03-18T07:56:47.457Z,15.33
2023-03-18T07:59:16.575Z,11.97
2023-03-18T08:01:45.108Z,13.50
2023-03-18T08:04:12.695Z,11.57
2023-03-18T08:06:39.797Z,13.13
2023-03-18T08:09:06.931Z,13.00
2023-03-18T08:11:34.187Z,12.43
2023-03-18T08:14:01.934Z,11.83
2023-03-18T08:16:29.417Z,14.57
2023-03-18T08:18:56.846Z,10.87
2023-03-18T08:21:23.910Z,12.10
2023-03-18T08:23:51.523Z,13.47
2023-03-18T08:26:19.677Z,14.23
2023-03-18T08:28:46.696Z,16.30
2023-03-18T08:31:14.463Z,12.23
2023-03-18T08:33:42.918Z,11.77
2023-03-18T08:36:10.197Z,11.67
2023-03-18T08:38:37.262Z,12.20
2023-03-18T08:41:04.367Z,11.60
2023-03-18T08:43:31.318Z,13.77
2023-03-18T08:45:58.930Z,11.90
2023-03-18T08:48:26.615Z,13.87
2023-03-18T08:50:53.897Z,11.80
2023-03-18T08:53:21.080Z,13.23
2023-03-18T08:55:49.340Z,13.70
2023-03-18T08:58:16.567Z,14.23
2023-03-18T09:00:44.195Z,16.13
2023-03-18T09:03:12.179Z,13.33
2023-03-18T09:05:40.417Z,15.87
2023-03-18T09:08:07.666Z,15.37
2023-03-18T09:10:36.266Z,12.80
2023-03-18T09:13:03.597Z,13.73
2023-03-18T09:15:31.841Z,15.77
2023-03-18T09:18:11.079Z,12.13
2023-03-18T09:20:40.723Z,13.60
2023-03-18T09:23:10.447Z,13.40
2023-03-18T09:25:37.520Z,10.53
2023-03-18T09:28:04.941Z,12.00
2023-03-18T09:30:32.642Z,13.63
2023-03-18T09:33:00.225Z,13.93
2023-03-18T09:35:31.833Z,11.70
2023-03-18T09:37:59.757Z,13.60
2023-03-18T09:40:38.673Z,13.70
2023-03-18T09:43:32.807Z,11.90
2023-03-18T09:46:33.903Z,12.20
2023-03-18T09:49:29.260Z,12.37
2023-03-18T09:52:23.497Z,11.67
2023-03-18T09:55:19.266Z,11.63
2023-03-18T09:57:51.890Z,11.67
2023-03-18T10:00:21.299Z,11.67
2023-03-18T10:02:56.575Z,15.80
2023-03-18T10:06:29.681Z,12.57
2023-03-18T10:09:12.446Z,15.33
2023-03-18T10:11:45.568Z,14.50
2023-03-18T10:14:43.153Z,11.60
2023-03-18T10:17:27.731Z,13.20
2023-03-18T10:20:05.316Z,11.13
2023-03-18T10:23:25.274Z,11.73
2023-03-18T10:25:56.529Z,11.90
2023-03-18T10:28:36.081Z,11.17
2023-03-18T10:31:46.254Z,13.30
2023-03-18T10:34:19.080Z,11.10
2023-03-18T10:37:12.857Z,12.13
2023-03-18T10:39:40.701Z,12.80
2023-03-18T10:42:22.176Z,13.73
2023-03-18T10:44:51.001Z,11.23
2023-03-18T10:47:33.878Z,13.47
2023-03-18T10:50:22.205Z,11.90
2023-03-18T10:53:03.871Z,13.33
2023-03-18T10:55:39.093Z,12.63
2023-03-18T10:58:20.383Z,11.50
2023-03-18T11:00:48.140Z,13.30
2023-03-18T11:03:32.431Z,12.13
2023-03-18T11:06:04.452Z,14.50
2023-03-18T11:08:39.847Z,12.97
2023-03-18T11:11:33.425Z,14.20
2023-03-18T11:14:05.874Z,18.40
2023-03-18T11:17:03.055Z,13.20
2023-03-18T11:19:40.040Z,12.17
2023-03-18T11:22:14.012Z,11.53
2023-03-18T11:24:45.355Z,11.47
2023-03-18T11:27:18.073Z,10.77
2023-03-18T11:30:00.740Z,18.67
2023-03-18T11:32:34.403Z,12.10
2023-03-18T11:35:07.406Z,12.97
2023-03-18T11:37:41.413Z,12.17
2023-03-18T11:40:14.406Z,11.17
2023-03-18T11:42:43.328Z,13.07
2023-03-18T11:45:32.448Z,15.20
2023-03-18T11:47:59.802Z,12.80
2023-03-18T11:50:40.836Z,12.63
2023-03-18T11:53:21.954Z,13.60
2023-03-18T11:56:32.867Z,12.90
2023-03-18T11:59:56.081Z,13.20
2023-03-18T12:02:45.601Z,13.20
2023-03-18T12:05:48.850Z,16.93
2023-03-18T12:08:50.442Z,13.37
2023-03-18T12:11:42.323Z,12.10
2023-03-18T12:14:50.009Z,14.13
2023-03-18T12:17:56.889Z,14.73
2023-03-18T12:20:53.497Z,14.27
2023-03-18T12:23:58.789Z,14.00
2023-03-18T12:27:00.150Z,15.20
2023-03-18T12:29:45.651Z,14.33
2023-03-18T12:32:26.982Z,16.17
2023-03-18T12:35:21.922Z,15.80
2023-03-18T12:38:25.823Z,13.73
2023-03-18T12:41:26.015Z,15.97
2023-03-18T12:44:19.954Z,14.10
2023-03-18T12:46:57.401Z,15.40
2023-03-18T12:49:35.674Z,15.17
2023-03-18T12:52:17.705Z,14.77
2023-03-18T12:54:55.970Z,14.60
2023-03-18T12:57:57.183Z,20.60
2023-03-18T13:00:33.228Z,13.17
2023-03-18T13:03:27.661Z,12.67
2023-03-18T13:06:17.803Z,14.93
2023-03-18T13:09:32.330Z,16.10
2023-03-18T13:12:27.059Z,15.13
2023-03-18T13:15:12.964Z,15.87
2023-03-18T13:17:42.364Z,14.53
2023-03-18T13:20:24.240Z,14.53
2023-03-18T13:23:36.209Z,15.20
2023-03-18T13:26:18.479Z,15.53
2023-03-18T13:29:20.329Z,16.47
2023-03-18T13:31:54.364Z,15.50
2023-03-18T13:34:30.034Z,15.17
2023-03-18T13:37:28.136Z,14.23
2023-03-18T13:40:23.061Z,19.73
2023-03-18T13:42:52.194Z,18.97
2023-03-18T13:45:28.115Z,19.40
2023-03-18T13:48:09.198Z,17.03
2023-03-18T13:50:39.983Z,20.00
2023-03-18T13:53:30.740Z,15.90
2023-03-18T13:56:00.397Z,16.50
2023-03-18T13:58:52.984Z,18.77
2023-03-18T14:01:35.740Z,17.67
2023-03-18T14:04:31.388Z,18.20
2023-03-18T14:07:15.754Z,17.27
2023-03-18T14:09:53.177Z,18.60
2023-03-18T14:12:40.475Z,19.40
2023-03-18T14:15:13.065Z,18.10
2023-03-18T14:17:55.688Z,17.03
2023-03-18T14:20:44.581Z,20.67
2023-03-18T14:23:44.652Z,17.77
2023-03-18T14:26:25.447Z,18.30
2023-03-18T14:29:25.051Z,19.03
2023-03-18T14:31:59.779Z,20.97
2023-03-18T14:34:33.715Z,20.23
2023-03-18T14:37:01.299Z,19.73
2023-03-18T14:39:48.146Z,31.43
2023-03-18T14:43:00.198Z,21.80
2023-03-18T14:45:35.923Z,17.53
2023-03-18T14:48:14.924Z,19.30
2023-03-18T14:50:49.097Z,22.87
2023-03-18T14:53:23.556Z,18.00
2023-03-18T14:55:56.949Z,20.40
2023-03-18T14:58:26.457Z,19.23
2023-03-18T15:01:04.893Z,17.60
2023-03-18T15:03:32.615Z,19.73
2023-03-18T15:06:03.636Z,18.70
2023-03-18T15:08:47.449Z,19.70
2023-03-18T15:11:16.758Z,18.60
2023-03-18T15:13:45.302Z,19.43
2023-03-18T15:16:21.284Z,22.73
2023-03-18T15:18:54.988Z,21.90
2023-03-18T15:21:32.618Z,21.10
2023-03-18T15:24:04.848Z,20.53
2023-03-18T15:26:40.098Z,19.63
2023-03-18T15:29:33.919Z,19.93
2023-03-18T15:32:10.499Z,23.00
2023-03-18T15:34:42.646Z,19.67
2023-03-18T15:37:44.632Z,19.20
2023-03-18T15:40:36.060Z,17.97
2023-03-18T15:43:18.412Z,20.10
2023-03-18T15:45:56.553Z,19.07
2023-03-18T15:48:29.954Z,20.07
2023-03-18T15:51:05.170Z,21.33
2023-03-18T15:53:44.458Z,18.90
2023-03-18T15:56:25.793Z,18.40
2023-03-18T15:59:16.106Z,20.17
2023-03-18T16:01:43.610Z,21.37
2023-03-18T16:04:16.857Z,21.47
2023-03-18T16:06:44.950Z,16.03
2023-03-18T16:09:26.567Z,22.20
2023-03-18T16:12:04.040Z,16.57
2023-03-18T16:14:39.999Z,16.90
2023-03-18T16:17:07.354Z,19.60
2023-03-18T16:19:34.346Z,19.60
2023-03-18T16:22:01.510Z,17.80
2023-03-18T16:24:28.631Z,19.50
2023-03-18T16:26:57.579Z,19.83
2023-03-18T16:29:31.847Z,21.40
2023-03-18T16:32:01.036Z,20.70
2023-03-18T16:34:28.376Z,19.57
2023-03-18T16:36:56.440Z,18.43
2023-03-18T16:39:27.515Z,20.50
2023-03-18T16:41:54.914Z,20.67
2023-03-18T16:44:26.569Z,20.93
2023-03-18T16:46:57.766Z,18.47
2023-03-18T16:49:37.420Z,18.87
2023-03-18T16:52:06.866Z,20.77
2023-03-18T16:54:34.596Z,22.27
2023-03-18T16:57:04.596Z,24.30
2023-03-18T16:59:37.806Z,20.30
2023-03-18T17:02:05.671Z,19.70
2023-03-18T17:04:37.046Z,19.30
2023-03-18T17:07:05.188Z,20.00
2023-03-18T17:09:32.558Z,26.93
2023-03-18T17:12:05.126Z,20.97
2023-03-18T17:14:38.925Z,22.23
2023-03-18T17:17:14.943Z,27.40
2023-03-18T17:19:41.873Z,20.97
2023-03-18T17:22:24.839Z,26.33
2023-03-18T17:24:52.292Z,21.70
2023-03-18T17:27:25.675Z,27.27
2023-03-18T17:29:53.858Z,19.30
2023-03-18T17:32:22.265Z,18.33
2023-03-18T17:34:54.384Z,35.63
2023-03-18T17:37:23.712Z,21.97
2023-03-18T17:39:50.839Z,23.80
2023-03-18T17:42:29.786Z,21.77
2023-03-18T17:45:05.852Z,18.07
2023-03-18T17:47:33.546Z,23.07
2023-03-18T17:50:01.010Z,24.50
2023-03-18T17:52:28.130Z,24.00
2023-03-18T17:54:55.170Z,24.33
2023-03-18T17:57:22.227Z,22.67
2023-03-18T17:59:49.247Z,23.73
2023-03-18T18:02:18.579Z,29.23
2023-03-18T18:04:46.258Z,22.77
2023-03-18T18:07:19.751Z,23.70
2023-03-18T18:09:47.126Z,20.80
2023-03-18T18:12:25.194Z,24.00
2023-03-18T18:14:52.378Z,21.20
2023-03-18T18:17:19.487Z,21.03
2023-03-18T18:19:46.602Z,23.70
2023-03-18T18:22:26.097Z,22.37
2023-03-18T18:24:55.209Z,23.80
2023-03-18T18:27:22.405Z,22.30
2023-03-18T18:29:50.376Z,23.97
2023-03-18T18:32:20.256Z,24.07
2023-03-18T18:34:55.833Z,19.93
2023-03-18T18:37:23.587Z,19.63
2023-03-18T18:39:51.160Z,24.77
2023-03-18T18:42:18.145Z,22.20
2023-03-18T18:44:45.399Z,21.57
2023-03-18T18:47:21.517Z,23.27
2023-03-18T18:49:48.612Z,22.17
2023-03-18T18:52:15.778Z,22.37
2023-03-18T18:54:43.542Z,21.90
2023-03-18T18:57:28.670Z,18.50
2023-03-18T18:59:58.364Z,21.77
2023-03-18T19:02:32.778Z,21.90
2023-03-18T19:05:02.541Z,20.17
2023-03-18T19:07:29.940Z,22.37
2023-03-18T19:09:57.523Z,23.50
2023-03-18T19:12:24.688Z,19.87
2023-03-18T19:14:52.344Z,22.33
2023-03-18T19:17:22.514Z,24.03
2023-03-18T19:19:52.821Z,25.43
2023-03-18T19:22:21.654Z,21.33
2023-03-18T19:24:50.450Z,21.07
2023-03-18T19:27:36.813Z,22.77
2023-03-18T19:30:22.537Z,24.50
2023-03-18T19:32:51.292Z,18.93
2023-03-18T19:35:18.929Z,22.67
2023-03-18T19:37:48.488Z,21.40
2023-03-18T19:40:30.168Z,18.30
2023-03-18T19:42:57.471Z,19.03
2023-03-18T19:45:24.772Z,22.03
2023-03-18T19:47:52.501Z,19.17
2023-03-18T19:50:21.951Z,21.27
2023-03-18T19:52:49.372Z,21.37
2023-03-18T19:55:17.558Z,17.80
2023-03-18T19:57:47.023Z,19.00
2023-03-18T20:00:24.846Z,17.40
2023-03-18T20:02:53.271Z,17.27
2023-03-18T20:05:23.604Z,19.00
2023-03-18T20:07:51.162Z,18.50
2023-03-18T20:10:20.356Z,19.70
2023-03-18T20:12:50.940Z,22.77
2023-03-18T20:15:31.643Z,24.63
2023-03-18T20:18:00.917Z,25.10
2023-03-18T20:20:31.561Z,21.13
2023-03-18T20:23:10.354Z,19.43
2023-03-18T20:25:42.750Z,22.87
2023-03-18T20:28:20.359Z,19.50
2023-03-18T20:30:53.160Z,18.50
2023-03-18T20:33:22.346Z,21.00
2023-03-18T20:35:52.471Z,16.33
2023-03-18T20:38:40.354Z,17.87
2023-03-18T20:41:07.617Z,19.70
2023-03-18T20:43:35.289Z,18.50
2023-03-18T20:46:02.582Z,17.10
2023-03-18T20:48:30.108Z,21.47
2023-03-18T20:50:58.178Z,24.80
2023-03-18T20:53:32.351Z,19.70
2023-03-18T20:55:59.682Z,19.70
2023-03-18T20:58:28.255Z,24.37
2023-03-18T21:00:55.752Z,25.40
2023-03-18T21:03:31.176Z,21.63
2023-03-18T21:06:01.748Z,20.93
2023-03-18T21:08:31.106Z,21.87
2023-03-18T21:11:01.835Z,28.67
2023-03-18T21:13:30.541Z,22.10
2023-03-18T21:15:59.937Z,21.77
2023-03-18T21:18:28.062Z,23.20
2023-03-18T21:20:56.562Z,20.03
2023-03-18T21:23:28.403Z,18.70
2023-03-18T21:25:56.666Z,20.47
2023-03-18T21:28:25.968Z,24.33
2023-03-18T21:30:57.957Z,24.17
2023-03-18T21:33:33.480Z,26.03
2023-03-18T21:36:01.876Z,22.70
2023-03-18T21:38:32.439Z,23.00
2023-03-18T21:41:01.919Z,22.10
2023-03-18T21:43:35.163Z,19.60
2023-03-18T21:46:04.489Z,24.63
2023-03-18T21:48:32.236Z,20.97
2023-03-18T21:50:59.887Z,21.83
2023-03-18T21:53:28.901Z,22.47
2023-03-18T21:55:56.313Z,22.50
2023-03-18T21:58:26.739Z,23.30
2023-03-18T22:00:57.620Z,23.43
2023-03-18T22:03:28.602Z,28.47
2023-03-18T22:05:57.703Z,27.30
2023-03-18T22:08:25.901Z,26.70
2023-03-18T22:10:53.894Z,26.50
2023-03-18T22:13:27.696Z,25.00
2023-03-18T22:15:57.371Z,25.17
2023-03-18T22:18:24.785Z,26.23
2023-03-18T22:20:52.221Z,26.17
2023-03-18T22:23:23.896Z,26.07
2023-03-18T22:25:54.874Z,22.63
2023-03-18T22:28:24.829Z,24.93
2023-03-18T22:30:55.980Z,22.53
2023-03-18T22:33:31.583Z,23.40
2023-03-18T22:35:59.789Z,25.10
2023-03-18T22:38:28.297Z,23.63
2023-03-18T22:40:57.725Z,24.53
2023-03-18T22:43:36.070Z,23.77
2023-03-18T22:46:06.877Z,27.30
2023-03-18T22:48:34.140Z,24.40
2023-03-18T22:51:02.095Z,27.83
2023-03-18T22:53:41.346Z,28.20
2023-03-18T22:56:12.144Z,25.70
2023-03-18T22:58:39.555Z,26.97
2023-03-18T23:01:07.240Z,27.63
2023-03-18T23:03:40.646Z,27.13
2023-03-18T23:06:08.186Z,25.20
2023-03-18T23:08:35.095Z,27.23
2023-03-18T23:11:02.849Z,24.63
2023-03-18T23:13:37.159Z,28.97
2023-03-18T23:16:07.240Z,22.17
2023-03-18T23:18:35.027Z,27.47
2023-03-18T23:21:02.150Z,23.97
2023-03-18T23:23:30.532Z,24.00
2023-03-18T23:25:58.218Z,25.37
2023-03-18T23:28:25.307Z,26.10
2023-03-18T23:30:53.401Z,25.27
2023-03-18T23:33:20.993Z,21.30
2023-03-18T23:35:49.072Z,20.43
2023-03-18T23:38:16.871Z,22.03
2023-03-18T23:40:44.133Z,26.70
2023-03-18T23:43:11.337Z,24.90
2023-03-18T23:45:39.116Z,26.80
2023-03-18T23:48:06.956Z,25.20
2023-03-18T23:50:34.527Z,23.30
2023-03-18T23:53:02.261Z,27.87
2023-03-18T23:55:36.437Z,28.07
2023-03-18T23:58:04.413Z,22.63
